Tiempo atmosférico en la estación meteorológica de Velilla del Río Carrión, Camporredondo de Alba, Palencia (1575 m.)



Fecha
DESCASC
Temp. máxima en grados centígrados (hora)
DESCASC
Temp. mínima en grados centígrados (hora)
DESCASC
Temp. media en grados centígrados
DESCASC
Racha de viento máxima en m/sg (hora)
DESCASC
Velocidad máxima media en intervalos de 10 minutos(hora)
DESCASC
Precipitaciones diarias en mm
DESCASC
Precipitaciones de 00:00 a 06:00 en mm
DESCASC
Precipitaciones de 06:00 a 12:00 en mm
DESCASC
Precipitaciones de 12:00 a 18:00 en mm
DESCASC
Precipitaciones de 18:00 a 24:00 en mm
DESCASC
25-02-2021 6.8 (16:20) 2.2 (23:59) 4.5 8.89 (04:20) 5.28 (04:20) 0 0 0 0 0
24-02-2021 10.6 (14:40) -0.2 (07:10) 5.2 15.83 (16:30) 10.83 (16:30) 0 0 0 0 0
23-02-2021 8.9 (16:30) -1.8 (07:50) 3.5 10.28 (14:20) 7.22 (17:50) 0 0 0 0 0
22-02-2021 10.2 (12:40) -2.1 (08:30) 4 8.33 (05:50) 5.28 (05:50) 12.6 0 7.6 5 0
21-02-2021 5.3 (00:40) -1.3 (-00:0) 2 23.89 (00:40) 13.61 (00:30) 10.2 0 0 4.6 5.6
20-02-2021 7.1 (12:00) 3.5 (00:00) 5.3 34.17 (11:10) 22.22 (11:10) 0.2 0.2 0 0 0
19-02-2021 7.9 (14:50) 2.3 (00:00) 5.1 21.39 (02:50) 13.89 (23:30) 0.2 0 0.2 0 0
18-02-2021 4.5 (01:00) 1.9 (00:00) 3.2 27.5 (09:40) 17.78 (03:00) 9 0 4 3.6 1.4
17-02-2021 5.6 (15:00) -0.1 (00:00) 2.7 27.22 (23:00) 16.67 (23:30) 0.8 0.2 0 0.2 0.4
16-02-2021 5.4 (00:20) 1.7 (00:00) 3.6 23.89 (07:40) 14.44 (07:10) 3.4 0 0 3.4 0
15-02-2021 8.3 (18:20) 2.7 (00:00) 5.5 10.28 (21:20) 7.78 (19:40) 0 0 0 0 0
14-02-2021 8.9 (16:40) 1.9 (00:00) 5.4 10 (13:20) 6.39 (12:50) 0.2 0 0.2 0 0
13-02-2021 10 (15:40) 0.8 (00:00) 5.4 10.28 (14:40) 6.39 (15:00) 0 0 0 0 0
12-02-2021 7.3 (15:40) 1.1 (00:00) 4.2 21.67 (00:50) 13.61 (00:50) 10.2 9.6 0.4 0.2 0
11-02-2021 7.6 (13:20) -0.2 (00:00) 3.7 20.83 (22:00) 12.78 (21:50) 5.4 0 0.2 0.6 4.6
10-02-2021 5.7 (16:00) -3.2 (-00:0) 1.2 11.67 (09:40) 7.78 (09:50) 12.2 0.2 0.4 11.6 0
09-02-2021 0.6 (11:00) -2.2 (-00:0) -0.8 22.78 (11:40) 14.17 (11:40) 8.2 0 2.2 6 0
08-02-2021 2.7 (17:00) -1.3 (-00:0) 0.7 11.67 (23:59) 8.33 (17:50) 3.2 0 0.2 3 0
07-02-2021 1.4 (14:20) -5.6 (-00:0) -2.1 11.39 (14:30) 7.78 (14:50) 0 0 0 0 0
06-02-2021 4.2 (13:40) -3.6 (-00:0) 0.3 11.67 (09:20) 7.78 (09:20) 2.4 1.4 1 0 0
05-02-2021 6.1 (15:20) 0.4 (00:00) 3.2 10.28 (20:50) 6.94 (20:50) 11.8 3 5.8 0.4 2.6
04-02-2021 3.4 (13:10) -0.2 (00:00) 1.6 21.11 (00:30) 14.17 (00:30) 2.4 0 0 0.8 1.6
03-02-2021 6.3 (15:20) 1.7 (00:00) 4 27.5 (02:10) 17.5 (03:00) 5.6 3.4 2.2 0 0
02-02-2021 5 (16:10) 3.3 (07:50) 4.1 24.44 (19:10) 14.17 (19:10) 9 0.2 0.2 2.8 5.8
01-02-2021 11.4 (14:20) 2.2 (00:00) 6.8 20.28 (06:30) 13.06 (07:30) 0.8 0 0.2 0.6 0
31-01-2021 10.9 (14:50) -0.6 (-00:0) 5.1 21.67 (20:50) 12.78 (17:00) 0.4 0 0.4 0 0
30-01-2021 4.6 (00:00) -0.9 (-00:0) 1.8 21.67 (03:00) 14.44 (03:00) 4.6 2.8 0 1.8 0
29-01-2021 7.6 (16:00) 4.6 (00:00) 6.1 15.83 (22:10) 9.44 (23:59) 0 0 0 0 0
28-01-2021 10.4 (12:50) 3.8 (00:00) 7.1 15.83 (13:00) 11.11 (13:30) 0.2 0 0.2 0 0

Gráficas

Temp. máximas Temp. mínimas Temp. medias Precipitaciones Rachas de viento máximas Velocidades máximas media en intervalos de 10 minutos

Datos horarios

Fecha y hora oficial Temperatura (ºC) Velocidad del viento (km/h) Dirección del viento Racha (km/h) Dirección de racha Precipitación (mm) Presión (hPa) Tendencia (hPa) Humedad (%)
2021-02-26 23:00:00 3.5 13 Este 18 Este 0 -- -- 70
2021-02-26 22:00:00 3.8 15 Este 18 Este 0 -- -- 80
2021-02-26 21:00:00 4 8 Este 18 Este 0 -- -- 85
2021-02-26 20:00:00 3.9 13 Este 21 Este 0 -- -- 90
2021-02-26 19:00:00 5.3 14 Este 21 Sudeste 0 -- -- 86
2021-02-26 18:00:00 8.4 9 Sudeste 21 Sudeste 0 -- -- 67
2021-02-26 17:00:00 11.3 6 Sudeste 21 Sudeste 0 -- -- 49
2021-02-26 16:00:00 11.2 8 Sudeste 23 Este 0 -- -- 57
2021-02-26 15:00:00 10 13 Sudeste 24 Sudeste 0 -- -- 63
2021-02-26 14:00:00 9 17 Este 26 Sudeste 0 -- -- 72
2021-02-26 13:00:00 9 13 Sudeste 29 Este 0 -- -- 68
2021-02-26 12:00:00 9.5 10 Sudeste 23 Este 0 -- -- 64
2021-02-26 11:00:00 6.2 7 Este 13 Este 0 -- -- 78
2021-02-26 10:00:00 4.3 6 Sudeste 12 Sudeste 0 -- -- 82
2021-02-26 09:00:00 2.3 12 Este 14 Sudeste 0 -- -- 90
2021-02-26 08:00:00 1.8 11 Este 16 Este 0 -- -- 94
2021-02-26 07:00:00 2.1 10 Este 14 Este 0 -- -- 94
2021-02-26 06:00:00 2.3 9 Este 12 Este 0 -- -- 93
2021-02-26 05:00:00 2.5 9 Este 15 Este 0 -- -- 92
2021-02-26 04:00:00 1.8 15 Este 28 Este 0 -- -- 97
2021-02-26 03:00:00 2.1 17 Este 26 Este 0 -- -- 95
2021-02-26 02:00:00 2.4 12 Este 16 Este 0 -- -- 96
2021-02-26 01:00:00 2.2 11 Este 15 Este 0 -- -- 97
2021-02-26 00:00:00 2.2 14 Este 18 Este 0 -- -- 97
2021-02-25 23:00:00 3.1 10 Este 13 Este 0 -- -- 95
2021-02-25 22:00:00 3.2 9 Este 18 Este 0 -- -- 97
2021-02-25 21:00:00 3.1 14 Este 19 Este 0 -- -- 97
2021-02-25 20:00:00 3.4 4 Este 19 Este 0 -- -- 92
2021-02-25 19:00:00 3.8 4 Sudeste 17 Sur 0 -- -- 91
2021-02-25 18:00:00 5.4 6 Sur 15 Sur 0 -- -- 84
2021-02-25 17:00:00 5.7 8 Sudoeste 15 Sudoeste 0 -- -- 81
2021-02-25 16:00:00 6.7 3 Sudeste 20 Este 0 -- -- 74
2021-02-25 15:00:00 5.8 9 Sudeste 19 Sudeste 0 -- -- 82
2021-02-25 14:00:00 4.7 14 Este 19 Este 0 -- -- 86
2021-02-25 13:00:00 5 6 Sudoeste 22 Sudoeste 0 -- -- 82
2021-02-25 12:00:00 3.5 10 Sudoeste 18 Sudoeste 0 -- -- 90
2021-02-25 11:00:00 2.9 8 Sudoeste 17 Sudoeste 0 -- -- 93
2021-02-25 10:00:00 3.3 0 Calma 8 Sur 0 -- -- 92
2021-02-25 09:00:00 3.4 2 Oeste 11 Sudoeste 0 -- -- 91
2021-02-25 08:00:00 3.1 6 Sudoeste 24 Oeste 0 -- -- 93
2021-02-25 07:00:00 3.2 15 Sudoeste 27 Oeste 0 -- -- 94
2021-02-25 06:00:00 3.5 6 Oeste 10 Oeste 0 -- -- 93
2021-02-25 05:00:00 3.8 5 Noroeste 32 Oeste 0 -- -- 91
2021-02-25 04:00:00 3.9 11 Sudoeste 22 Sudoeste 0 -- -- 91
2021-02-25 03:00:00 3.6 5 Oeste 19 Oeste 0 -- -- 94
2021-02-25 02:00:00 3.4 8 Oeste 14 Oeste 0 -- -- 97
2021-02-25 01:00:00 3.8 6 Oeste 27 Sudoeste 0 -- -- 95
2021-02-25 00:00:00 4.5 18 Oeste 34 Oeste 0 -- -- 91
2021-02-24 23:00:00 4.7 24 Oeste 39 Oeste 0 -- -- 90
2021-02-24 22:00:00 4.8 25 Oeste 45 Sudoeste 0 -- -- 85
2021-02-24 21:00:00 5.5 19 Oeste 33 Oeste 0 -- -- 83
2021-02-24 20:00:00 5.1 26 Oeste 39 Oeste 0 -- -- 83
2021-02-24 19:00:00 5.6 25 Oeste 43 Oeste 0 -- -- 80
2021-02-24 18:00:00 8.3 21 Oeste 39 Sudoeste 0 -- -- 72
2021-02-24 17:00:00 7 24 Oeste 57 Oeste 0 -- -- 77
2021-02-24 16:00:00 9.8 30 Oeste 49 Oeste 0 -- -- 61
2021-02-24 15:00:00 10.3 24 Oeste 44 Oeste 0 -- -- 59
2021-02-24 14:00:00 9.9 23 Sudoeste 39 Sudoeste 0 -- -- 54
2021-02-24 13:00:00 8.1 17 Oeste 36 Oeste 0 -- -- 63
2021-02-24 12:00:00 6.4 27 Oeste 42 Noroeste 0 -- -- 69
2021-02-24 11:00:00 5.7 17 Oeste 36 Oeste 0 -- -- 86
2021-02-24 10:00:00 1.4 15 Oeste 24 Noroeste 0 -- -- 98
2021-02-24 09:00:00 0.2 18 Oeste 26 Oeste 0 -- -- 99
2021-02-24 08:00:00 -0.1 16 Noroeste 23 Noroeste 0 -- -- 99
2021-02-24 07:00:00 -0.1 10 Noroeste 22 Noroeste 0 -- -- 98
2021-02-24 06:00:00 0.2 9 Noroeste 16 Noroeste 0 -- -- 96
2021-02-24 05:00:00 0.8 11 Noroeste 21 Noroeste 0 -- -- 94
2021-02-24 04:00:00 0.9 13 Oeste 27 Noroeste 0 -- -- 93
2021-02-24 03:00:00 1.4 14 Noroeste 22 Noroeste 0 -- -- 88
2021-02-24 02:00:00 1 10 Oeste 26 Noroeste 0 -- -- 89
2021-02-24 01:00:00 1.7 14 Oeste 27 Oeste 0 -- -- 84
2021-02-24 00:00:00 2.3 21 Oeste 35 Oeste 0 -- -- 80
2021-02-23 23:00:00 2.8 18 Oeste 30 Oeste 0 -- -- 74
2021-02-23 22:00:00 3.3 16 Oeste 33 Oeste 0 -- -- 72
2021-02-23 21:00:00 3.3 15 Oeste 30 Oeste 0 -- -- 69
2021-02-23 20:00:00 3.4 17 Oeste 31 Oeste 0 -- -- 49
2021-02-23 19:00:00 3.6 13 Oeste 35 Oeste 0 -- -- 48
2021-02-23 18:00:00 6.9 26 Oeste 35 Oeste 0 -- -- 33
2021-02-23 17:00:00 8.2 22 Oeste 36 Oeste 0 -- -- 42
2021-02-23 16:00:00 8.3 23 Oeste 36 Oeste 0 -- -- 42
2021-02-23 15:00:00 8.2 21 Oeste 37 Oeste 0 -- -- 37
2021-02-23 14:00:00 7.7 20 Oeste 30 Oeste 0 -- -- 46
2021-02-23 13:00:00 6.7 17 Oeste 28 Oeste 0 -- -- 49
2021-02-23 12:00:00 5.9 14 Oeste 27 Noroeste 0 -- -- 51
2021-02-23 11:00:00 3.8 14 Oeste 23 Oeste 0 -- -- 59
2021-02-23 10:00:00 2.2 14 Oeste 23 Oeste 0 -- -- 66
2021-02-23 09:00:00 -0.3 11 Oeste 24 Oeste 0 -- -- 71
2021-02-23 08:00:00 -1.6 15 Oeste 24 Oeste 0 -- -- 76
2021-02-23 07:00:00 -1.4 15 Sudoeste 25 Oeste 0 -- -- 73
2021-02-23 06:00:00 -1.1 11 Oeste 17 Oeste 0 -- -- 74
2021-02-23 05:00:00 -1.7 11 Oeste 14 Sudoeste 0 -- -- 79
2021-02-23 04:00:00 -0.6 5 Oeste 18 Oeste 0 -- -- 73
2021-02-23 03:00:00 -0.7 9 Oeste 19 Noroeste 0 -- -- 77
2021-02-23 02:00:00 -0.3 13 Oeste 21 Oeste 0 -- -- 78
2021-02-23 01:00:00 -0.4 16 Noroeste 18 Noroeste 0 -- -- 81
2021-02-23 00:00:00 -0.3 10 Noroeste 14 Noroeste 0 -- -- 79
2021-02-22 23:00:00 -0.5 4 Noroeste 8 Noroeste 0 -- -- 76
2021-02-22 22:00:00 0 4 Noroeste 12 Noroeste 0 -- -- 79
2021-02-22 21:00:00 0.7 0 Calma 9 Sudoeste 0 -- -- 82
2021-02-22 20:00:00 1.4 7 Sudoeste 12 Oeste 0 -- -- 81
2021-02-22 19:00:00 2 10 Oeste 13 Sudoeste 0 -- -- 77
2021-02-22 18:00:00 5.9 8 Oeste 22 Oeste 0 -- -- 64
2021-02-22 17:00:00 6.9 11 Oeste 28 Oeste 0 -- -- 64
2021-02-22 16:00:00 5.1 14 Oeste 30 Oeste 0 -- -- 70
2021-02-22 15:00:00 5.7 6 Oeste 16 Sudoeste 0 -- -- 79
2021-02-22 14:00:00 4.8 6 Sudoeste 11 Sudoeste 0.6 -- -- 79
2021-02-22 13:00:00 7.4 4 Oeste 9 Oeste 4.4 -- -- 66
2021-02-22 12:00:00 5.1 3 Oeste 7 Oeste 4 -- -- 63
2021-02-22 11:00:00 3.1 4 Oeste 6 Oeste 3.6 -- -- 76
2021-02-22 10:00:00 1.1 3 Oeste 13 Oeste 0 -- -- 87
2021-02-22 09:00:00 -1.5 9 Oeste 18 Oeste 0 -- -- 93
2021-02-22 08:00:00 -1.7 13 Oeste 18 Noroeste 0 -- -- 92
2021-02-22 07:00:00 -1.4 9 Norte 30 Norte 0 -- -- 92
2021-02-22 06:00:00 -1.2 18 Norte 30 Noroeste 0 -- -- 93
2021-02-22 05:00:00 -1.4 0 Calma -- -- 0 -- -- 95
2021-02-22 04:00:00 -1.6 0 Calma -- -- 0 -- -- 98
2021-02-22 03:00:00 -1.5 0 Calma -- -- 0 -- -- 99
2021-02-22 02:00:00 -1.5 0 Calma -- -- 0 -- -- 99
2021-02-22 01:00:00 -1.4 0 Calma -- -- 0 -- -- 99
2021-02-22 00:00:00 -1.3 0 Calma -- -- 0 -- -- 99
2021-02-21 23:00:00 -1.3 0 Calma -- -- 0 -- -- 99
2021-02-21 22:00:00 -1.2 0 Calma -- -- 0 -- -- 99
2021-02-21 21:00:00 -1 0 Calma 10 Este 0.2 -- -- 99
2021-02-21 20:00:00 0.4 8 Este 32 Sur 2.8 -- -- 98
2021-02-21 19:00:00 1.4 18 Sur 34 Sur 2.6 -- -- 98
2021-02-21 18:00:00 1.8 16 Sur 42 Sur 1.6 -- -- 97
2021-02-21 17:00:00 2.2 24 Sur 43 Sur 0.6 -- -- 96
2021-02-21 16:00:00 2 17 Sur 34 Sur 1.6 -- -- 96
2021-02-21 15:00:00 2 16 Sur 29 Sur 0.8 -- -- 95
2021-02-21 14:00:00 3.4 9 Sur 26 Sur 0 -- -- 81
2021-02-21 13:00:00 3.2 7 Sudeste 22 Sur 0 -- -- 84
2021-02-21 12:00:00 2.8 5 Sur 24 Sudoeste 0 -- -- 84
2021-02-21 11:00:00 3.3 7 Sudoeste 33 Sur 0 -- -- 78
2021-02-21 10:00:00 3.2 19 Sudoeste 51 Sudoeste 0 -- -- 79
2021-02-21 09:00:00 3.2 21 Sudoeste 54 Sudoeste 0 -- -- 81
2021-02-21 08:00:00 3.6 28 Sudoeste 51 Oeste 0 -- -- 78
2021-02-21 07:00:00 4 23 Sudoeste 42 Sudoeste 0 -- -- 75
2021-02-21 06:00:00 4.2 26 Sudoeste 50 Sudoeste 0 -- -- 71
2021-02-21 05:00:00 4.6 31 Sudoeste 52 Sudoeste 0 -- -- 62
2021-02-21 04:00:00 4.5 30 Sudoeste 58 Sudoeste 0 -- -- 55
2021-02-21 03:00:00 5 39 Sudoeste 72 Oeste 0 -- -- 49
2021-02-21 02:00:00 5.2 45 Sudoeste 79 Oeste 0 -- -- 46
2021-02-21 01:00:00 5 30 Sudoeste 86 Sudoeste 0 -- -- 48
2021-02-21 00:00:00 5.2 46 Sudoeste 78 Sudoeste 0 -- -- 53
2021-02-20 23:00:00 5.2 40 Sudoeste 86 Oeste 0 -- -- 53
2021-02-20 22:00:00 5.7 46 Sudoeste 76 Sudoeste 0 -- -- 54
2021-02-20 21:00:00 5.5 39 Sudoeste 74 Sudoeste 0 -- -- 57
2021-02-20 20:00:00 5.5 45 Sudoeste 80 Sudoeste 0 -- -- 60
2021-02-20 19:00:00 5.5 41 Oeste 82 Oeste 0 -- -- 63
2021-02-20 18:00:00 6.2 39 Oeste 90 Sudoeste 0 -- -- 60
2021-02-20 17:00:00 6 32 Sudoeste 57 Oeste 0 -- -- 66
2021-02-20 16:00:00 5.2 33 Oeste 73 Oeste 0 -- -- 69
2021-02-20 15:00:00 6.5 43 Oeste 86 Oeste 0 -- -- 61
2021-02-20 14:00:00 4.8 45 Sudoeste 96 Sudoeste 0 -- -- 64
2021-02-20 13:00:00 6.1 59 Oeste 104 Oeste 0 -- -- 57
2021-02-20 12:00:00 7.1 58 Oeste 123 Oeste 0 -- -- 55
2021-02-20 11:00:00 5 73 Oeste 120 Sudoeste 0 -- -- 52
2021-02-20 10:00:00 4.3 63 Oeste 118 Oeste 0 -- -- 59
2021-02-20 09:00:00 3.9 61 Oeste 103 Oeste 0 -- -- 58
2021-02-20 08:00:00 4 69 Oeste 105 Oeste 0 -- -- 53
2021-02-20 07:00:00 4.2 62 Oeste 101 Oeste 0 -- -- 54
2021-02-20 06:00:00 3.9 58 Oeste 113 Oeste 0 -- -- 62
2021-02-20 05:00:00 4 64 Oeste 119 Sudoeste 0 -- -- 64
2021-02-20 04:00:00 3.9 61 Oeste 99 Oeste 0 -- -- 65
2021-02-20 03:00:00 3.8 52 Oeste 99 Oeste 0 -- -- 85
2021-02-20 02:00:00 3.8 44 Oeste 81 Sudoeste 0.2 -- -- 89
2021-02-20 01:00:00 3.7 50 Oeste 80 Oeste 0 -- -- 90
2021-02-20 00:00:00 3.6 45 Oeste 75 Oeste 0 -- -- 89
2021-02-19 23:00:00 3.7 38 Oeste 77 Sudoeste 0 -- -- 87
2021-02-19 22:00:00 3.9 41 Sudoeste 68 Oeste 0 -- -- 79
2021-02-19 21:00:00 4.1 38 Oeste 68 Oeste 0 -- -- 76
2021-02-19 20:00:00 4.1 37 Oeste 65 Oeste 0 -- -- 65
2021-02-19 19:00:00 4.1 39 Oeste 68 Oeste 0 -- -- 68
2021-02-19 18:00:00 4.8 30 Oeste 61 Oeste 0 -- -- 76
2021-02-19 17:00:00 5 40 Oeste 66 Oeste 0 -- -- 74
2021-02-19 16:00:00 6.4 36 Oeste 64 Oeste 0 -- -- 72
2021-02-19 15:00:00 7.8 35 Oeste 61 Sudoeste 0 -- -- 63
2021-02-19 14:00:00 5.9 35 Oeste 64 Oeste 0 -- -- 79
2021-02-19 13:00:00 4.4 39 Oeste 71 Oeste 0 -- -- 93
2021-02-19 12:00:00 3.1 29 Oeste 56 Oeste 0 -- -- 98
2021-02-19 11:00:00 3 34 Oeste 58 Sudoeste 0 -- -- 97
2021-02-19 10:00:00 2.9 36 Oeste 63 Oeste 0 -- -- 97
2021-02-19 09:00:00 2.7 37 Oeste 63 Oeste 0.2 -- -- 98
2021-02-19 08:00:00 2.9 42 Oeste 68 Oeste 0 -- -- 92
2021-02-19 07:00:00 2.6 39 Oeste 70 Oeste 0 -- -- 97
2021-02-19 06:00:00 2.4 36 Oeste 66 Oeste 0 -- -- 99
2021-02-19 05:00:00 2.5 32 Oeste 64 Oeste 0 -- -- 98
2021-02-19 04:00:00 2.3 34 Oeste 61 Oeste 0 -- -- 95
2021-02-19 03:00:00 2.7 40 Oeste 77 Oeste 0 -- -- 93
2021-02-19 02:00:00 2.7 47 Oeste 71 Oeste 0 -- -- 95
2021-02-19 01:00:00 2.7 42 Oeste 75 Oeste 0 -- -- 97
2021-02-19 00:00:00 2.6 39 Oeste 60 Oeste 0 -- -- 97
2021-02-18 23:00:00 2.6 32 Oeste 60 Oeste 0 -- -- 97
2021-02-18 22:00:00 2.6 42 Oeste 75 Oeste 0 -- -- 96
2021-02-18 21:00:00 2.7 37 Oeste 62 Oeste 0.2 -- -- 99
2021-02-18 20:00:00 2.9 27 Oeste 60 Oeste 0.6 -- -- 99
2021-02-18 19:00:00 2.8 26 Oeste 62 Oeste 0.6 -- -- 99
2021-02-18 18:00:00 2.9 30 Oeste 59 Oeste 1.2 -- -- 99
2021-02-18 17:00:00 2.9 26 Oeste 56 Oeste 0.6 -- -- 99
2021-02-18 16:00:00 3.4 39 Oeste 60 Oeste 1 -- -- 99
2021-02-18 15:00:00 3.2 40 Oeste 69 Sudoeste 0.4 -- -- 99
2021-02-18 14:00:00 3.1 53 Oeste 84 Oeste 0.2 -- -- 100
2021-02-18 13:00:00 2.6 40 Oeste 67 Oeste 0.2 -- -- 100
2021-02-18 12:00:00 2.3 40 Oeste 77 Oeste 1.2 -- -- 100
2021-02-18 11:00:00 2 45 Oeste 89 Oeste 1.2 -- -- 100
2021-02-18 10:00:00 2 63 Oeste 99 Oeste 1.6 -- -- 99
2021-02-18 09:00:00 2.5 48 Oeste 98 Oeste 0 -- -- 97
2021-02-18 08:00:00 2.6 59 Oeste 92 Oeste 0 -- -- 98
2021-02-18 07:00:00 2.9 48 Oeste 80 Oeste 0 -- -- 98
2021-02-18 06:00:00 3 56 Oeste 82 Oeste 0 -- -- 96
2021-02-18 05:00:00 3 52 Oeste 83 Oeste 0 -- -- 98
2021-02-18 04:00:00 3.4 61 Oeste 95 Oeste 0 -- -- 99
2021-02-18 03:00:00 3.8 64 Oeste 95 Oeste 0 -- -- 95
2021-02-18 02:00:00 4.1 56 Oeste 93 Sudoeste 0 -- -- 94
2021-02-18 01:00:00 4.5 60 Oeste 94 Oeste 0 -- -- 90
2021-02-18 00:00:00 4.3 53 Oeste 97 Oeste 0 -- -- 95
2021-02-17 23:00:00 4.7 57 Oeste 98 Oeste 0 -- -- 94
2021-02-17 22:00:00 4.6 53 Oeste 74 Sudoeste 0 -- -- 96
2021-02-17 21:00:00 4.3 46 Oeste 76 Oeste 0 -- -- 97
2021-02-17 20:00:00 3.8 44 Oeste 78 Oeste 0 -- -- 96
2021-02-17 19:00:00 3.9 39 Oeste 59 Oeste 0.4 -- -- 99
2021-02-17 18:00:00 4 28 Oeste 51 Oeste 0.2 -- -- 97
2021-02-17 17:00:00 4.7 25 Oeste 54 Sudoeste 0 -- -- 88
2021-02-17 16:00:00 4.6 30 Oeste 59 Sudoeste 0 -- -- 87
2021-02-17 15:00:00 5.6 29 Oeste 64 Oeste 0 -- -- 83
2021-02-17 14:00:00 3.7 30 Oeste 53 Oeste 0 -- -- 96
2021-02-17 13:00:00 3.3 31 Oeste 51 Oeste 0 -- -- 98
2021-02-17 12:00:00 2.4 29 Oeste 51 Oeste 0 -- -- 100
2021-02-17 11:00:00 2.2 24 Oeste 46 Oeste 0 -- -- 100
2021-02-17 10:00:00 1.6 16 Oeste 28 Oeste 0 -- -- 100
2021-02-17 09:00:00 1.1 19 Oeste 32 Oeste 0 -- -- 100
2021-02-17 08:00:00 0.7 18 Oeste 28 Oeste 0 -- -- 100
2021-02-17 07:00:00 0.9 15 Oeste 26 Oeste 0 -- -- 100
2021-02-17 06:00:00 0.8 12 Oeste 22 Noroeste 0 -- -- 100
2021-02-17 05:00:00 0.4 13 Oeste 27 Noroeste 0 -- -- 100
2021-02-17 04:00:00 0.3 8 Oeste 20 Oeste 0.2 -- -- 100
2021-02-17 03:00:00 0.4 13 Oeste 18 Oeste 0 -- -- 100
2021-02-17 02:00:00 1.2 9 Oeste 14 Noroeste 0 -- -- 100
2021-02-17 01:00:00 1.5 11 Noroeste 16 Noroeste 0 -- -- 99
2021-02-17 00:00:00 1.8 11 Oeste 23 Oeste 0 -- -- 99
2021-02-16 23:00:00 1.9 8 Oeste 19 Noroeste 0 -- -- 99
2021-02-16 22:00:00 1.9 14 Oeste 21 Oeste 0 -- -- 100
2021-02-16 21:00:00 2 14 Oeste 28 Oeste 0 -- -- 100
2021-02-16 20:00:00 2.2 21 Oeste 33 Oeste 0 -- -- 100
2021-02-16 19:00:00 2.4 26 Oeste 40 Oeste 0 -- -- 100
2021-02-16 18:00:00 2.5 28 Oeste 43 Oeste 1.2 -- -- 100
2021-02-16 17:00:00 3.5 17 Oeste 35 Oeste 0.2 -- -- 100
2021-02-16 16:00:00 3.6 20 Oeste 35 Oeste 1.2 -- -- 100
2021-02-16 15:00:00 3.3 27 Oeste 59 Oeste 0.6 -- -- 99
2021-02-16 14:00:00 3 40 Oeste 58 Oeste 0.2 -- -- 99
2021-02-16 13:00:00 2.8 32 Oeste 58 Oeste 0 -- -- 98
2021-02-16 12:00:00 2.9 39 Oeste 67 Noroeste 0 -- -- 94
2021-02-16 11:00:00 3.4 41 Oeste 77 Oeste 0 -- -- 87
2021-02-16 10:00:00 2.9 39 Oeste 70 Oeste 0 -- -- 89
2021-02-16 09:00:00 2.9 40 Oeste 85 Oeste 0 -- -- 92
2021-02-16 08:00:00 3.3 50 Oeste 86 Oeste 0 -- -- 88
2021-02-16 07:00:00 3.5 50 Oeste 82 Oeste 0 -- -- 84
2021-02-16 06:00:00 3.3 40 Oeste 78 Oeste 0 -- -- 87
2021-02-16 05:00:00 3.4 33 Oeste 69 Oeste 0 -- -- 87
2021-02-16 04:00:00 3.9 31 Oeste 64 Oeste 0 -- -- 85
2021-02-16 03:00:00 4.6 23 Oeste 45 Oeste 0 -- -- 79
2021-02-16 02:00:00 5.2 20 Oeste 29 Oeste 0 -- -- 83
2021-02-16 01:00:00 4.9 11 Oeste 30 Oeste 0 -- -- 83
2021-02-16 00:00:00 5.3 17 Oeste 33 Oeste 0 -- -- 76
2021-02-15 23:00:00 5.8 21 Oeste 33 Oeste 0 -- -- 77
2021-02-15 22:00:00 5.8 14 Oeste 37 Oeste 0 -- -- 79
2021-02-15 21:00:00 5.5 16 Oeste 30 Oeste 0 -- -- 77
2021-02-15 20:00:00 6.1 12 Oeste 37 Oeste 0 -- -- 61
2021-02-15 19:00:00 6.2 14 Sudoeste 29 Oeste 0 -- -- 66
2021-02-15 18:00:00 7.4 14 Sudoeste 29 Sudoeste 0 -- -- 72
2021-02-15 17:00:00 7.7 14 Sudoeste 22 Sudoeste 0 -- -- 77
2021-02-15 16:00:00 8 7 Oeste 19 Oeste 0 -- -- 73
2021-02-15 15:00:00 7.4 13 Oeste 24 Oeste 0 -- -- 76
2021-02-15 14:00:00 6.9 11 Noroeste 23 Noroeste 0 -- -- 78
2021-02-15 13:00:00 6.6 14 Oeste 27 Noroeste 0 -- -- 80
2021-02-15 12:00:00 5.2 15 Oeste 30 Oeste 0 -- -- 87
2021-02-15 11:00:00 4.7 14 Oeste 27 Noroeste 0 -- -- 91
2021-02-15 10:00:00 3.4 15 Oeste 26 Oeste 0 -- -- 95
2021-02-15 09:00:00 3 9 Noroeste 19 Noroeste 0 -- -- 95
2021-02-15 08:00:00 3.1 13 Noroeste 24 Oeste 0 -- -- 90
2021-02-15 07:00:00 3 16 Oeste 21 Oeste 0 -- -- 95
2021-02-15 06:00:00 3.1 15 Oeste 19 Oeste 0 -- -- 100
2021-02-15 05:00:00 3.1 17 Oeste 22 Oeste 0 -- -- 99
2021-02-15 04:00:00 3.2 5 Oeste 14 Noroeste 0 -- -- 99
2021-02-15 03:00:00 3.9 4 Oeste 22 Oeste 0 -- -- 96
2021-02-15 02:00:00 4.7 12 Oeste 26 Oeste 0 -- -- 92
2021-02-15 01:00:00 4.9 9 Oeste 25 Oeste 0 -- -- 91
2021-02-15 00:00:00 4.8 13 Oeste 21 Oeste 0 -- -- 93
2021-02-14 23:00:00 5.2 5 Oeste 17 Oeste 0 -- -- 90
2021-02-14 22:00:00 4.9 6 Oeste 15 Noroeste 0 -- -- 90
2021-02-14 21:00:00 4.2 7 Oeste 14 Noroeste 0 -- -- 95
2021-02-14 20:00:00 4 11 Noroeste 21 Noroeste 0 -- -- 95
2021-02-14 19:00:00 4.2 5 Oeste 25 Oeste 0 -- -- 94
2021-02-14 18:00:00 5.7 18 Oeste 30 Oeste 0 -- -- 84
2021-02-14 17:00:00 8.7 15 Oeste 26 Oeste 0 -- -- 74
2021-02-14 16:00:00 7.6 14 Oeste 34 Oeste 0 -- -- 78
2021-02-14 15:00:00 8.1 20 Oeste 32 Oeste 0 -- -- 78
2021-02-14 14:00:00 7.4 19 Oeste 36 Oeste 0 -- -- 80
2021-02-14 13:00:00 7.2 22 Oeste 33 Oeste 0 -- -- 82
2021-02-14 12:00:00 6.7 18 Oeste 29 Oeste 0 -- -- 86
2021-02-14 11:00:00 4.9 14 Oeste 19 Oeste 0 -- -- 91
2021-02-14 10:00:00 3.7 13 Oeste 19 Oeste 0 -- -- 93
2021-02-14 09:00:00 2.9 10 Oeste 18 Oeste 0 -- -- 96
2021-02-14 08:00:00 2 13 Oeste 24 Oeste 0 -- -- 99
2021-02-14 07:00:00 2.5 15 Oeste 24 Oeste 0.2 -- -- 97
2021-02-14 06:00:00 2 11 Oeste 28 Oeste 0 -- -- 97
2021-02-14 05:00:00 2.1 14 Oeste 21 Oeste 0 -- -- 97
2021-02-14 04:00:00 2.8 10 Oeste 16 Noroeste 0 -- -- 92
2021-02-14 03:00:00 3.7 7 Oeste 15 Oeste -- -- -- 93
2021-02-14 02:00:00 3.1 13 Noroeste 17 Oeste 0 -- -- 94
2021-02-14 01:00:00 3.5 9 Oeste 14 Oeste 0 -- -- 90
2021-02-14 00:00:00 4.2 6 Oeste 10 Oeste 0 -- -- 91
2021-02-13 23:00:00 3.7 7 Oeste 9 Oeste 0 -- -- 95
2021-02-13 22:00:00 3.5 4 Noroeste 9 Oeste 0 -- -- 97
2021-02-13 21:00:00 4 6 Oeste 9 Oeste 0 -- -- 95
2021-02-13 20:00:00 4.1 3 Oeste 8 Sudoeste 0 -- -- 91
2021-02-13 19:00:00 4.7 0 Calma 15 Noroeste 0 -- -- 84
2021-02-13 18:00:00 8.8 6 Noroeste 17 Oeste 0 -- -- 65
2021-02-13 17:00:00 7.1 5 Oeste 25 Noroeste 0 -- -- 63
2021-02-13 16:00:00 7.7 14 Noroeste 35 Oeste 0 -- -- 66
2021-02-13 15:00:00 8.7 23 Noroeste 37 Noroeste 0 -- -- 65
2021-02-13 14:00:00 9.7 14 Oeste 35 Oeste 0 -- -- 68
2021-02-13 13:00:00 6.6 12 Oeste 24 Oeste 0 -- -- 78
2021-02-13 08:00:00 -- -- -- -- -- -- -- -- --
2021-02-13 07:00:00 -- -- -- -- -- -- -- -- --
2021-02-13 06:00:00 -- -- -- -- -- -- -- -- --
2021-02-13 05:00:00 1.2 21 Oeste 24 Noroeste 0 -- -- 85
2021-02-13 04:00:00 1.6 10 Oeste 13 Oeste 0 -- -- 82
2021-02-13 03:00:00 2 6 Oeste 10 Oeste 0 -- -- 77
2021-02-13 02:00:00 2.4 6 Sudoeste 8 Oeste 0 -- -- 76
2021-02-13 01:00:00 2.2 8 Noroeste 10 Oeste 0 -- -- 77
2021-02-13 00:00:00 1.9 8 Oeste 13 Oeste 0 -- -- 78
2021-02-12 23:00:00 1.9 12 Noroeste 17 Noroeste 0 -- -- 77
2021-02-12 22:00:00 1.7 10 Oeste 15 Noroeste 0 -- -- 80
2021-02-12 21:00:00 2 14 Noroeste 26 Noroeste 0 -- -- 81
2021-02-12 20:00:00 1.9 9 Oeste 28 Norte 0 -- -- 92
2021-02-12 19:00:00 2.2 21 Noroeste 27 Noroeste 0 -- -- 92
2021-02-12 18:00:00 5.3 9 Oeste 24 Oeste 0 -- -- 82
2021-02-12 17:00:00 7.1 14 Oeste 33 Oeste 0 -- -- 87
2021-02-12 16:00:00 6.3 10 Noroeste 24 Oeste 0 -- -- 95
2021-02-12 15:00:00 5.7 17 Oeste 35 Oeste 0 -- -- 97
2021-02-12 14:00:00 3.4 13 Oeste 30 Oeste 0 -- -- 100
2021-02-12 13:00:00 3.1 17 Oeste 34 Noroeste 0.2 -- -- 100
2021-02-12 12:00:00 2.8 21 Oeste 35 Noroeste 0 -- -- 100
2021-02-12 11:00:00 1.6 22 Oeste 35 Oeste 0 -- -- 100
2021-02-12 10:00:00 1.1 17 Oeste 29 Noroeste 0 -- -- 100
2021-02-12 09:00:00 1.4 23 Oeste 30 Oeste 0 -- -- 100
2021-02-12 08:00:00 1.8 19 Oeste 34 Noroeste 0.4 -- -- 100
2021-02-12 07:00:00 2.7 15 Oeste 35 Oeste 0 -- -- 100
2021-02-12 06:00:00 2.9 15 Oeste 31 Oeste 0.2 -- -- 100
2021-02-12 05:00:00 3.2 18 Oeste 36 Oeste 0.2 -- -- 100
2021-02-12 04:00:00 3.5 27 Oeste 48 Oeste 1.2 -- -- 100
2021-02-12 03:00:00 4.9 27 Oeste 53 Oeste 3.8 -- -- 100
2021-02-12 02:00:00 5.1 30 Oeste 74 Oeste 2.2 -- -- 100
2021-02-12 01:00:00 5.2 48 Oeste 78 Oeste 2 -- -- 100
2021-02-12 00:00:00 5.4 31 Oeste 55 Oeste 1.8 -- -- 100
2021-02-11 23:00:00 5.4 35 Oeste 66 Sudoeste 0.2 -- -- 100
2021-02-11 22:00:00 5.4 46 Oeste 75 Oeste 1 -- -- 100
2021-02-11 21:00:00 5.6 32 Oeste 48 Oeste 1 -- -- 100
2021-02-11 20:00:00 5.3 18 Oeste 39 Oeste 0.4 -- -- 100
2021-02-11 19:00:00 4.8 14 Oeste 32 Oeste 0.2 -- -- 100
2021-02-11 18:00:00 4.6 16 Oeste 29 Oeste 0.4 -- -- 100
2021-02-11 17:00:00 4.1 18 Oeste 39 Oeste 0 -- -- 100
2021-02-11 16:00:00 4.2 31 Oeste 47 Oeste 0 -- -- 100
2021-02-11 15:00:00 5 23 Oeste 32 Oeste 0 -- -- 98
2021-02-11 14:00:00 4.8 18 Oeste 28 Oeste 0 -- -- 99
2021-02-11 13:00:00 5.1 11 Oeste 18 Oeste 0.2 -- -- 100
2021-02-11 12:00:00 3.9 14 Oeste 21 Oeste 0.2 -- -- 100
2021-02-11 11:00:00 3.3 13 Oeste 22 Noroeste 0 -- -- 100
2021-02-11 10:00:00 2.9 15 Oeste 26 Oeste 0 -- -- 100
2021-02-11 09:00:00 2.9 16 Noroeste 22 Noroeste 0 -- -- 100
2021-02-11 08:00:00 2.3 10 Oeste 17 Noroeste 0 -- -- 100
2021-02-11 07:00:00 1.9 13 Noroeste 19 Noroeste 0 -- -- 100
2021-02-11 06:00:00 1.2 9 Oeste 20 Oeste 0 -- -- 100
2021-02-11 05:00:00 0.8 11 Noroeste 16 Noroeste 0 -- -- 99
2021-02-11 04:00:00 -0.2 12 Oeste 21 Oeste 0 -- -- 97
2021-02-11 03:00:00 0.6 11 Oeste 23 Oeste 0 -- -- 83
2021-02-11 02:00:00 0.2 17 Oeste 24 Oeste 0 -- -- 86
2021-02-11 01:00:00 1.3 13 Oeste 20 Oeste 0 -- -- 72
2021-02-11 00:00:00 0.7 12 Oeste 23 Oeste 0 -- -- 82
2021-02-10 23:00:00 0.9 17 Oeste 28 Oeste 0 -- -- 84
2021-02-10 22:00:00 0.5 19 Oeste 23 Oeste 0 -- -- 96
2021-02-10 21:00:00 0.8 16 Oeste 22 Oeste 0 -- -- 96
2021-02-10 20:00:00 0.7 11 Oeste 29 Oeste 0 -- -- 97
2021-02-10 19:00:00 1.6 19 Oeste 28 Oeste 0 -- -- 92
2021-02-10 18:00:00 3.8 19 Oeste 31 Oeste 0.2 -- -- 80
2021-02-10 17:00:00 4.5 21 Oeste 31 Sudoeste 1.2 -- -- 79
2021-02-10 16:00:00 5.7 15 Oeste 33 Oeste 2.8 -- -- 73
2021-02-10 15:00:00 3 16 Oeste 35 Oeste 3 -- -- 92
2021-02-10 14:00:00 3.2 20 Oeste 37 Oeste 2.6 -- -- 91
2021-02-10 13:00:00 0.8 25 Oeste 40 Oeste 1.8 -- -- 96
2021-02-10 12:00:00 1.1 24 Noroeste 39 Noroeste 0.4 -- -- 94
2021-02-10 11:00:00 -0.4 14 Oeste 33 Oeste 0 -- -- 97
2021-02-10 10:00:00 -1.4 27 Oeste 42 Oeste 0 -- -- 97
2021-02-10 09:00:00 -2.3 23 Oeste 35 Oeste 0 -- -- 98
2021-02-10 08:00:00 -3.2 26 Oeste 40 Oeste 0 -- -- 99
2021-02-10 07:00:00 -2.2 21 Oeste 30 Oeste 0 -- -- 99
2021-02-10 06:00:00 -2.3 21 Oeste 32 Oeste 0 -- -- 99
2021-02-10 05:00:00 -2.4 20 Oeste 30 Oeste 0.2 -- -- 99
2021-02-10 04:00:00 -1.9 18 Oeste 26 Oeste 0 -- -- 99
2021-02-10 03:00:00 -1.8 13 Oeste 19 Oeste 0 -- -- 99
2021-02-10 02:00:00 -2 5 Oeste 21 Oeste 0 -- -- 99
2021-02-10 01:00:00 -2 15 Oeste 36 Oeste 0 -- -- 99
2021-02-10 00:00:00 -2.1 27 Oeste 41 Oeste 0 -- -- 99
2021-02-09 23:00:00 -2.1 19 Oeste 30 Oeste 0 -- -- 99
2021-02-09 22:00:00 -1.9 23 Oeste 58 Oeste 0 -- -- 99
2021-02-09 21:00:00 -1.5 30 Oeste 62 Oeste 0 -- -- 100
2021-02-09 20:00:00 -1.3 20 Oeste 44 Oeste 0 -- -- 99
2021-02-09 19:00:00 -1.2 22 Oeste 36 Oeste 0 -- -- 100
2021-02-09 18:00:00 -1.1 26 Oeste 44 Oeste 0 -- -- 100
2021-02-09 17:00:00 -0.7 14 Oeste 57 Oeste 0.2 -- -- 98
2021-02-09 16:00:00 -0.6 22 Oeste 51 Oeste 1.2 -- -- 98
2021-02-09 15:00:00 -0.5 37 Oeste 66 Oeste 1.6 -- -- 98
2021-02-09 14:00:00 -1 33 Oeste 59 Oeste 1.2 -- -- 99
2021-02-09 13:00:00 -0.7 33 Oeste 51 Oeste 1.8 -- -- 100
2021-02-09 12:00:00 -0.1 44 Oeste 82 Sudoeste 2.2 -- -- 100
2021-02-09 11:00:00 0.6 43 Oeste 75 Oeste 0 -- -- 100
2021-02-09 10:00:00 0.2 0 Calma 0 Calma 0 -- -- 100
2021-02-09 09:00:00 -0.1 0 Calma -- -- 0 -- -- 100
2021-02-09 08:00:00 -0.3 0 Calma -- -- 0 -- -- 100
2021-02-09 07:00:00 -0.3 0 Calma -- -- 0 -- -- 100
2021-02-09 06:00:00 -0.4 0 Calma -- -- 0 -- -- 100
2021-02-09 05:00:00 -1 0 Calma -- -- 0 -- -- 100
2021-02-09 04:00:00 -0.8 0 Calma -- -- 0 -- -- 100
2021-02-09 03:00:00 -0.3 0 Calma -- -- 0 -- -- 100
2021-02-09 02:00:00 -0.3 14 Oeste 32 Oeste 0 -- -- 100
2021-02-09 01:00:00 -0.3 22 Oeste 36 Noroeste 0 -- -- 100
2021-02-09 00:00:00 -0.1 24 Oeste 42 Oeste 0 -- -- 100
2021-02-08 23:00:00 -0.8 17 Oeste 31 Oeste 0 -- -- 100
2021-02-08 22:00:00 -0.7 11 Oeste 31 Noroeste 0 -- -- 99
2021-02-08 21:00:00 -0.3 25 Oeste 38 Oeste 0 -- -- 99
2021-02-08 20:00:00 -0.1 21 Oeste 33 Noroeste 0 -- -- 100
2021-02-08 19:00:00 0.1 22 Oeste 38 Oeste 0 -- -- 100
2021-02-08 18:00:00 0.6 29 Oeste 41 Oeste 0 -- -- 99
2021-02-08 17:00:00 2.7 21 Oeste 42 Oeste 0.4 -- -- 96
2021-02-08 16:00:00 2 27 Oeste 38 Oeste 0.8 -- -- 96
2021-02-08 15:00:00 0.2 0 Calma -- -- 0.8 -- -- 99
2021-02-08 14:00:00 0.4 0 Calma -- -- 0.6 -- -- 98
2021-02-08 13:00:00 -0.1 0 Calma -- -- 0.4 -- -- 100
2021-02-08 12:00:00 -0.5 0 Calma -- -- 0.2 -- -- 99
2021-02-08 11:00:00 -0.6 0 Calma -- -- 0 -- -- 99
2021-02-08 10:00:00 -1.1 0 Calma -- -- 0 -- -- 99
2021-02-08 09:00:00 -1.2 0 Calma -- -- 0 -- -- 100
2021-02-08 08:00:00 -1 0 Calma -- -- 0 -- -- 100
2021-02-08 07:00:00 -0.5 0 Calma -- -- 0 -- -- 100
2021-02-08 06:00:00 -0.3 0 Calma -- -- 0 -- -- 100
2021-02-08 05:00:00 -0.1 0 Calma -- -- 0 -- -- 100
2021-02-08 04:00:00 -0.5 0 Calma -- -- 0 -- -- 100
2021-02-08 03:00:00 -1 0 Calma -- -- 0 -- -- 100
2021-02-08 02:00:00 -1.1 0 Calma -- -- 0 -- -- 99
2021-02-08 01:00:00 -1.1 0 Calma -- -- 0 -- -- 99
2021-02-08 00:00:00 -1.3 0 Calma -- -- 0 -- -- 99
2021-02-07 23:00:00 -1.3 0 Calma 17 Oeste 0 -- -- 99
2021-02-07 22:00:00 -1.5 12 Oeste 21 Oeste 0 -- -- 99
2021-02-07 21:00:00 -1.4 14 Oeste 30 Oeste 0 -- -- 99
2021-02-07 20:00:00 -1.7 15 Oeste 24 Oeste 0 -- -- 99
2021-02-07 19:00:00 -2 16 Oeste 30 Oeste 0 -- -- 98
2021-02-07 18:00:00 -1.9 19 Oeste 29 Oeste 0 -- -- 98
2021-02-07 17:00:00 -1.9 19 Oeste 32 Noroeste 0 -- -- 97
2021-02-07 16:00:00 -1.4 22 Oeste 36 Oeste 0 -- -- 93
2021-02-07 15:00:00 0.2 27 Oeste 41 Oeste 0 -- -- 76
2021-02-07 14:00:00 0.2 22 Oeste 31 Oeste 0 -- -- 65
2021-02-07 13:00:00 -0.6 18 Oeste 27 Oeste 0 -- -- 69
2021-02-07 12:00:00 -0.8 15 Oeste 24 Oeste 0 -- -- 69
2021-02-07 11:00:00 -2.5 11 Oeste 18 Oeste 0 -- -- 80
2021-02-07 10:00:00 -3.1 7 Oeste 10 Oeste 0 -- -- 79
2021-02-07 09:00:00 -3.8 6 Noroeste 9 Noroeste 0 -- -- 74
2021-02-07 08:00:00 -4.7 6 Noroeste 11 Oeste 0 -- -- 82
2021-02-07 07:00:00 -5.2 6 Oeste 9 Noroeste 0 -- -- 86
2021-02-07 06:00:00 -5.4 4 Oeste 6 Noroeste 0 -- -- 92
2021-02-07 05:00:00 -5.4 4 Oeste 6 Noroeste 0 -- -- 95
2021-02-07 04:00:00 -5.1 3 Oeste 5 Noroeste 0 -- -- 93
2021-02-07 03:00:00 -4.6 3 Oeste 7 Oeste 0 -- -- 90
2021-02-07 02:00:00 -4.2 5 Oeste 13 Oeste 0 -- -- 87
2021-02-07 01:00:00 -3.9 6 Oeste 13 Oeste 0 -- -- 83
2021-02-07 00:00:00 -3.6 9 Oeste 21 Noroeste 0 -- -- 89
2021-02-06 23:00:00 -2.8 5 Noroeste 17 Norte 0 -- -- 83
2021-02-06 22:00:00 -2.6 7 Noroeste 14 Norte 0 -- -- 83
2021-02-06 21:00:00 -2.3 10 Noroeste 17 Noroeste 0 -- -- 89
2021-02-06 20:00:00 -2.1 10 Noroeste 23 Noroeste 0 -- -- 90
2021-02-06 19:00:00 -1.4 12 Oeste 17 Noroeste 0 -- -- 91
2021-02-06 18:00:00 0.7 10 Oeste 21 Norte 0 -- -- 82
2021-02-06 17:00:00 2.7 11 Noroeste 22 Norte 0 -- -- 70
2021-02-06 16:00:00 3.7 14 Norte 30 Norte 0 -- -- 68
2021-02-06 15:00:00 3.2 8 Norte 30 Nordeste 0 -- -- 71
2021-02-06 14:00:00 3.1 10 Nordeste 33 Nordeste 0 -- -- 69
2021-02-06 13:00:00 3.1 21 Nordeste 38 Nordeste 0 -- -- 72
2021-02-06 12:00:00 2.3 14 Nordeste 41 Nordeste 0.4 -- -- 76
2021-02-06 11:00:00 1.4 5 Oeste 25 Este 0.4 -- -- 88
2021-02-06 10:00:00 1.3 19 Nordeste 42 Nordeste 0.2 -- -- 81
2021-02-06 09:00:00 1.1 25 Nordeste 36 Nordeste 0 -- -- 84
2021-02-06 08:00:00 0.5 6 Norte 24 Nordeste 0 -- -- 90
2021-02-06 07:00:00 0.6 5 Nordeste 23 Nordeste 0 -- -- 91
2021-02-06 06:00:00 0.7 5 Sudeste 10 Sudeste 0 -- -- 93
2021-02-06 05:00:00 1.4 8 Este 17 Sudeste 0.4 -- -- 89
2021-02-06 04:00:00 1.4 10 Este 24 Este 0 -- -- 94
2021-02-06 03:00:00 1.7 10 Este 23 Sudeste 1 -- -- 100
2021-02-06 02:00:00 1.6 11 Sudeste 33 Sudeste 0 -- -- 100
2021-02-06 01:00:00 2.2 12 Sudeste 30 Este 0 -- -- 100
2021-02-06 00:00:00 1.9 9 Sudeste 30 Este 0.2 -- -- 100
2021-02-05 23:00:00 2.2 4 Sur 17 Nordeste 0.8 -- -- 100
2021-02-05 22:00:00 2.5 8 Este 33 Este 1.2 -- -- 100
2021-02-05 21:00:00 2.7 23 Este 37 Sudeste 0.4 -- -- 100
2021-02-05 20:00:00 2.7 21 Este 37 Este 0 -- -- 100
2021-02-05 19:00:00 2.8 23 Este 33 Este 0 -- -- 100
2021-02-05 18:00:00 3.5 8 Sudeste 21 Sudeste 0 -- -- 99
2021-02-05 17:00:00 4.2 13 Este 16 Este 0 -- -- 100
2021-02-05 16:00:00 4.6 2 Sur 9 Sudoeste 0 -- -- 98
2021-02-05 15:00:00 4.7 2 Oeste 7 Norte 0 -- -- 99
2021-02-05 14:00:00 3.1 3 Nordeste 6 Sur 0 -- -- 100
2021-02-05 13:00:00 2.7 2 Sudeste 11 Sudoeste 0.4 -- -- 100
2021-02-05 12:00:00 2.7 4 Sur 15 Este 0.8 -- -- 100
2021-02-05 11:00:00 1.9 3 Este 15 Este 1.4 -- -- 100
2021-02-05 10:00:00 1.9 12 Este 19 Este -- -- -- 100
2021-02-05 09:00:00 1.5 20 Este 24 Este 1.2 -- -- 100
2021-02-05 08:00:00 1.4 13 Este 16 Este 1.8 -- -- 100
2021-02-05 07:00:00 1.9 5 Este 8 Este 0.4 -- -- 100
2021-02-05 06:00:00 1.1 5 Este 10 Este 1.2 -- -- 100
2021-02-05 05:00:00 0.7 6 Este 11 Este 0.6 -- -- 100
2021-02-05 04:00:00 0.7 0 Calma 10 Este 0.6 -- -- 100
2021-02-05 03:00:00 1.1 2 Este 10 Norte 0.2 -- -- 100
2021-02-05 02:00:00 0.5 4 Oeste 7 Sudoeste 0.2 -- -- 100
2021-02-05 01:00:00 0.6 0 Calma 8 Oeste 0.2 -- -- 100
2021-02-05 00:00:00 0.6 4 Noroeste 12 Oeste 0.6 -- -- 99
2021-02-04 23:00:00 0.5 6 Oeste 10 Oeste 0.4 -- -- 99
2021-02-04 22:00:00 1 4 Sur 8 Sur 0 -- -- 97
2021-02-04 21:00:00 0.9 5 Oeste 9 Oeste 0.2 -- -- 97
2021-02-04 20:00:00 0.7 2 Sudeste 5 Este 0.2 -- -- 98
2021-02-04 19:00:00 0.4 0 Calma 6 Este 0.2 -- -- 99
2021-02-04 18:00:00 -0.1 0 Calma 0 Calma 0.2 -- -- 99
2021-02-04 17:00:00 0.1 0 Calma -- -- 0.4 -- -- 98
2021-02-04 16:00:00 -0.2 0 Calma 5 Sudeste 0 -- -- 98
2021-02-04 15:00:00 0.4 0 Calma 8 Noroeste 0.2 -- -- 96
2021-02-04 14:00:00 1.5 5 Noroeste 17 Oeste 0 -- -- 91
2021-02-04 13:00:00 3.3 13 Oeste 22 Oeste 0 -- -- 79
2021-02-04 12:00:00 3.3 6 Oeste 18 Noroeste 0 -- -- 85
2021-02-04 11:00:00 2.8 5 Noroeste 9 Norte 0 -- -- 89
2021-02-04 10:00:00 1.5 6 Oeste 23 Sudoeste 0 -- -- 92
2021-02-04 09:00:00 0.9 9 Oeste 28 Oeste 0 -- -- 95
2021-02-04 08:00:00 0.5 9 Oeste 29 Oeste 0 -- -- 98
2021-02-04 07:00:00 1.2 20 Oeste 43 Oeste 0 -- -- 93
2021-02-04 06:00:00 1.2 22 Oeste 46 Oeste 0 -- -- 92
2021-02-04 05:00:00 1.3 31 Oeste 60 Oeste 0 -- -- 91
2021-02-04 04:00:00 1.4 33 Oeste 59 Oeste 0 -- -- 91
2021-02-04 03:00:00 1.2 33 Oeste 56 Oeste 0 -- -- 91
2021-02-04 02:00:00 1.6 37 Oeste 64 Oeste 0 -- -- 91
2021-02-04 01:00:00 2.2 41 Oeste 76 Oeste 0 -- -- 92
2021-02-04 00:00:00 2.7 45 Oeste 68 Oeste 0 -- -- 90
2021-02-03 23:00:00 2.9 40 Oeste 64 Oeste 0 -- -- 86
2021-02-03 22:00:00 2.8 32 Oeste 67 Oeste 0 -- -- 85
2021-02-03 21:00:00 3 35 Oeste 50 Oeste 0 -- -- 87
2021-02-03 20:00:00 3.3 24 Oeste 44 Oeste 0 -- -- 88
2021-02-03 19:00:00 3.6 26 Oeste 49 Oeste 0 -- -- 85
2021-02-03 18:00:00 3.9 34 Oeste 53 Oeste 0 -- -- 82
2021-02-03 17:00:00 4.3 26 Oeste 67 Oeste 0 -- -- 79
2021-02-03 16:00:00 5.7 31 Oeste 55 Oeste 0 -- -- 69
2021-02-03 15:00:00 5.7 29 Oeste 61 Oeste 0 -- -- 72
2021-02-03 14:00:00 4.7 39 Oeste -- -- -- -- -- 75
2021-02-03 13:00:00 5 35 Oeste 57 Oeste 0 -- -- 80
2021-02-03 12:00:00 3.1 36 Oeste 67 Oeste 0 -- -- 98
2021-02-03 11:00:00 2.8 41 Oeste 67 Oeste 0 -- -- 99
2021-02-03 10:00:00 1.7 41 Oeste 65 Oeste 0 -- -- 100
2021-02-03 09:00:00 1.9 38 Oeste 63 Noroeste 0 -- -- 100
2021-02-03 08:00:00 2.6 41 Oeste 81 Oeste 1 -- -- 100
2021-02-03 07:00:00 3.4 55 Oeste 87 Oeste 1.2 -- -- 100
2021-02-03 06:00:00 3.9 49 Oeste 84 Oeste 0.8 -- -- 100
2021-02-03 05:00:00 3.9 52 Oeste 94 Oeste 0.6 -- -- 100
2021-02-03 04:00:00 3.9 61 Oeste 91 Oeste 0.4 -- -- 100
2021-02-03 03:00:00 3.7 63 Oeste 99 Oeste 0.4 -- -- 100
2021-02-03 02:00:00 3.5 63 Oeste 91 Oeste 0.6 -- -- 100
2021-02-03 01:00:00 3.5 51 Oeste 84 Oeste 0.6 -- -- 100
2021-02-03 00:00:00 3.6 47 Oeste 79 Sudoeste 0.6 -- -- 100
2021-02-02 23:00:00 3.8 42 Oeste 71 Oeste 0.6 -- -- 100
2021-02-02 22:00:00 3.9 42 Oeste 81 Oeste 0.4 -- -- 100
2021-02-02 21:00:00 3.8 46 Oeste 78 Oeste 0 -- -- 100
2021-02-02 20:00:00 3.8 41 Oeste 88 Oeste 2.2 -- -- 100
2021-02-02 19:00:00 3.8 31 Oeste 47 Sudoeste 2 -- -- 100
2021-02-02 18:00:00 4 28 Oeste 48 Oeste 1.6 -- -- 100
2021-02-02 17:00:00 4.5 19 Oeste 41 Oeste 0.2 -- -- 100
2021-02-02 16:00:00 4.9 13 Oeste 41 Oeste 0 -- -- 100
2021-02-02 15:00:00 4.4 24 Oeste 49 Oeste 0.6 -- -- 100
2021-02-02 14:00:00 4.3 18 Oeste 39 Oeste 0.4 -- -- 100
2021-02-02 13:00:00 4.4 12 Oeste 32 Oeste 0 -- -- 100
2021-02-02 12:00:00 4 18 Oeste 32 Oeste 0 -- -- 100
2021-02-02 11:00:00 3.7 19 Oeste 36 Oeste 0 -- -- 100
2021-02-02 10:00:00 3.6 21 Oeste 41 Oeste 0.2 -- -- 100
2021-02-02 09:00:00 3.6 23 Oeste 37 Oeste 0 -- -- 100
2021-02-02 08:00:00 3.4 21 Oeste 44 Oeste 0 -- -- 100
2021-02-02 07:00:00 3.6 19 Oeste 36 Oeste 0 -- -- 100
2021-02-02 06:00:00 3.8 21 Oeste 39 Oeste 0 -- -- 100
2021-02-02 05:00:00 4.1 21 Oeste 52 Oeste 0 -- -- 100
2021-02-02 04:00:00 4 35 Oeste 56 Oeste 0 -- -- 100
2021-02-02 03:00:00 4.2 40 Oeste 58 Oeste 0 -- -- 100
2021-02-02 02:00:00 4.2 32 Oeste 59 Oeste 0.2 -- -- 100
2021-02-02 01:00:00 4.2 34 Oeste 52 Oeste 0 -- -- 99
2021-02-02 00:00:00 4.4 21 Oeste 41 Oeste 0 -- -- 99
2021-02-01 23:00:00 4.4 22 Oeste 35 Noroeste 0 -- -- 99
2021-02-01 22:00:00 4 18 Oeste 25 Oeste 0 -- -- 98
2021-02-01 21:00:00 4.9 13 Oeste 28 Oeste 0 -- -- 94
2021-02-01 20:00:00 4.9 13 Oeste 27 Oeste 0 -- -- 94
2021-02-01 19:00:00 5.5 14 Oeste 26 Oeste 0 -- -- 91
2021-02-01 18:00:00 6.6 17 Oeste 28 Oeste 0 -- -- 86
2021-02-01 17:00:00 7.3 22 Oeste 38 Oeste 0 -- -- 84
2021-02-01 16:00:00 6.5 18 Oeste 59 Noroeste 0.6 -- -- 90
2021-02-01 15:00:00 10.4 35 Noroeste 52 Noroeste 0 -- -- 46
2021-02-01 14:00:00 10.1 26 Noroeste 62 Noroeste 0 -- -- 59
2021-02-01 13:00:00 10 31 Oeste 62 Noroeste 0 -- -- 62
2021-02-01 12:00:00 8 41 Noroeste 65 Noroeste 0 -- -- 71
2021-02-01 11:00:00 8.6 37 Noroeste 71 Noroeste 0 -- -- 66
2021-02-01 10:00:00 7.9 37 Noroeste 72 Noroeste 0 -- -- 65
2021-02-01 09:00:00 6 43 Noroeste 69 Noroeste 0 -- -- 59
2021-02-01 08:00:00 5.3 41 Noroeste 67 Noroeste 0 -- -- 50
2021-02-01 07:00:00 5.2 44 Noroeste 73 Noroeste 0.2 -- -- 48
2021-02-01 06:00:00 4.7 40 Noroeste 65 Noroeste 0 -- -- 50
2021-02-01 05:00:00 3.5 34 Noroeste 50 Noroeste 0 -- -- 62
2021-02-01 04:00:00 3.3 37 Noroeste 54 Noroeste 0 -- -- 69
2021-02-01 03:00:00 2.8 37 Noroeste 48 Noroeste 0 -- -- 76
2021-02-01 02:00:00 2.4 32 Oeste 52 Oeste 0 -- -- 82
2021-02-01 01:00:00 2.7 34 Oeste 58 Oeste 0 -- -- 85
2021-02-01 00:00:00 3.2 39 Oeste 62 Oeste 0 -- -- 86
2021-01-31 23:00:00 3.9 41 Oeste 60 Oeste 0 -- -- 82
2021-01-31 22:00:00 4.7 42 Oeste 76 Oeste 0 -- -- 79
2021-01-31 21:00:00 5.2 42 Oeste 78 Oeste 0 -- -- 77
2021-01-31 20:00:00 5.7 29 Oeste 44 Oeste 0 -- -- 71
2021-01-31 19:00:00 5.9 24 Oeste 54 Sudoeste 0 -- -- 69
2021-01-31 18:00:00 8 34 Oeste 59 Oeste 0 -- -- 65
2021-01-31 17:00:00 9.3 46 Oeste 67 Oeste 0 -- -- 57
2021-01-31 16:00:00 10.2 32 Oeste 49 Oeste 0 -- -- 65
2021-01-31 15:00:00 10.1 32 Oeste 50 Oeste 0 -- -- 62
2021-01-31 14:00:00 9.4 26 Oeste 51 Oeste 0 -- -- 72
2021-01-31 13:00:00 9 30 Oeste 49 Noroeste 0 -- -- 80
2021-01-31 12:00:00 7.2 28 Oeste 47 Noroeste 0 -- -- 97
2021-01-31 11:00:00 5.1 31 Oeste 46 Oeste 0.2 -- -- 100
2021-01-31 10:00:00 3.4 26 Oeste 48 Oeste 0 -- -- 99
2021-01-31 09:00:00 3.2 35 Noroeste 51 Noroeste 0 -- -- 99
2021-01-31 08:00:00 1.7 28 Noroeste 52 Noroeste 0 -- -- 94
2021-01-31 07:00:00 2.7 32 Noroeste 59 Nordeste 0.2 -- -- 68
2021-01-31 06:00:00 3.2 15 Norte 69 Norte 0 -- -- 77
2021-01-31 05:00:00 2.6 24 Noroeste 66 Norte 0 -- -- 71
2021-01-31 04:00:00 1.5 27 Noroeste 68 Noroeste 0 -- -- 82
2021-01-31 03:00:00 0.4 28 Noroeste 57 Noroeste 0 -- -- 99
2021-01-31 02:00:00 -0.4 33 Noroeste 53 Noroeste 0 -- -- 100
2021-01-31 01:00:00 -0.5 37 Noroeste 63 Noroeste 0 -- -- 100
2021-01-31 00:00:00 -0.6 37 Noroeste 56 Noroeste 0 -- -- 100
2021-01-30 23:00:00 -0.8 35 Noroeste 53 Noroeste 0 -- -- 99
2021-01-30 22:00:00 -0.8 36 Noroeste 48 Noroeste 0 -- -- 96
2021-01-30 21:00:00 0 35 Noroeste 64 Noroeste 0 -- -- 84
2021-01-30 20:00:00 -0.3 35 Noroeste 61 Oeste 0 -- -- 89
2021-01-30 19:00:00 0.1 32 Noroeste 49 Noroeste 0 -- -- 94
2021-01-30 18:00:00 -0.1 32 Oeste 48 Oeste 0 -- -- 99
2021-01-30 17:00:00 0.2 27 Oeste 47 Noroeste 0.4 -- -- 99
2021-01-30 16:00:00 -0.3 29 Oeste 55 Oeste 0.4 -- -- 99
2021-01-30 15:00:00 0.6 31 Oeste 55 Oeste 0.4 -- -- 96
2021-01-30 14:00:00 3.1 23 Oeste 48 Oeste 0.6 -- -- 73
2021-01-30 13:00:00 1.2 30 Oeste 64 Oeste 0 -- -- 89
2021-01-30 12:00:00 2.9 40 Oeste 67 Oeste 0 -- -- 79
2021-01-30 11:00:00 1 41 Oeste 63 Oeste 0 -- -- 90
2021-01-30 10:00:00 0.9 30 Oeste 55 Oeste 0 -- -- 89
2021-01-30 09:00:00 0.7 30 Oeste 56 Oeste 0 -- -- 94
2021-01-30 08:00:00 0.6 37 Oeste 60 Oeste 0 -- -- 98
2021-01-30 07:00:00 1.4 35 Oeste 57 Oeste 0 -- -- 95
2021-01-30 06:00:00 1.7 35 Oeste 58 Oeste 0 -- -- 95
2021-01-30 05:00:00 1.9 32 Oeste 60 Oeste 0 -- -- 99
2021-01-30 04:00:00 2.9 48 Oeste 71 Oeste 0.2 -- -- 100
2021-01-30 03:00:00 3.1 52 Oeste 78 Oeste 1.8 -- -- 100
2021-01-30 02:00:00 4.1 28 Oeste 56 Oeste 0.8 -- -- 100
2021-01-30 01:00:00 4.2 36 Oeste 57 Oeste 0 -- -- 100
2021-01-30 00:00:00 4.6 34 Oeste 56 Oeste 0 -- -- 100
2021-01-29 23:00:00 4.9 27 Oeste 57 Oeste 0 -- -- 98
2021-01-29 22:00:00 5.4 33 Oeste 52 Oeste 0 -- -- 95
2021-01-29 21:00:00 6.2 25 Oeste 44 Oeste 0 -- -- 96
2021-01-29 20:00:00 6.2 26 Oeste 44 Oeste 0 -- -- 97
2021-01-29 19:00:00 6.6 27 Oeste 42 Oeste 0 -- -- 93
2021-01-29 18:00:00 6.8 18 Oeste 37 Oeste 0 -- -- 95
2021-01-29 17:00:00 7.3 20 Oeste 32 Oeste 0 -- -- 94
2021-01-29 16:00:00 7.6 20 Oeste 32 Oeste 0 -- -- 97
2021-01-29 15:00:00 7 15 Oeste 32 Oeste 0 -- -- 98
2021-01-29 14:00:00 6.2 17 Oeste 31 Oeste 0 -- -- 100
2021-01-29 13:00:00 6.5 21 Oeste 33 Oeste 0 -- -- 97
2021-01-29 12:00:00 5.8 21 Oeste 33 Oeste 0 -- -- 100
2021-01-29 11:00:00 5.4 18 Oeste 26 Oeste 0 -- -- 100
2021-01-29 10:00:00 5.1 19 Oeste 31 Oeste 0 -- -- 100
2021-01-29 09:00:00 5 18 Oeste 29 Oeste 0 -- -- 100
2021-01-29 08:00:00 5.1 21 Oeste 31 Oeste 0 -- -- 100
2021-01-29 07:00:00 5.3 20 Oeste 39 Oeste 0 -- -- 100
2021-01-29 06:00:00 5.4 28 Oeste 44 Oeste 0 -- -- 100
2021-01-29 05:00:00 5.4 28 Oeste 40 Oeste 0 -- -- 100
2021-01-29 04:00:00 5.6 26 Oeste 35 Oeste 0 -- -- 99
2021-01-29 03:00:00 5.7 20 Oeste 35 Noroeste 0 -- -- 99
2021-01-29 02:00:00 6.2 26 Oeste 41 Oeste 0 -- -- 96
2021-01-29 01:00:00 6.3 24 Oeste 41 Oeste 0 -- -- 93
2021-01-29 00:00:00 5.9 20 Oeste 42 Noroeste 0 -- -- 97
2021-01-28 23:00:00 6.9 24 Oeste 46 Oeste 0 -- -- 93
2021-01-28 22:00:00 7.1 25 Oeste 41 Noroeste 0 -- -- 98
2021-01-28 21:00:00 7.5 27 Oeste 41 Noroeste 0 -- -- 99
2021-01-28 20:00:00 7.3 19 Oeste 36 Noroeste 0 -- -- 99
2021-01-28 19:00:00 7.3 22 Oeste 44 Oeste 0 -- -- 98
2021-01-28 18:00:00 7.2 32 Oeste 48 Oeste 0 -- -- 96
2021-01-28 17:00:00 7.1 22 Oeste 35 Oeste 0 -- -- 95
2021-01-28 16:00:00 8.2 24 Oeste 49 Oeste 0 -- -- 89
2021-01-28 15:00:00 10 28 Oeste 49 Oeste 0 -- -- 81
2021-01-28 14:00:00 9.8 36 Oeste 53 Oeste 0 -- -- 79
2021-01-28 13:00:00 10.1 37 Oeste 57 Oeste 0 -- -- 77
2021-01-28 12:00:00 9.4 27 Oeste 37 Noroeste 0 -- -- 80
2021-01-28 11:00:00 7.6 22 Oeste 30 Oeste 0 -- -- 87
2021-01-28 10:00:00 6 24 Oeste 33 Oeste 0 -- -- 91
2021-01-28 09:00:00 5.2 27 Oeste 33 Oeste 0 -- -- 96
2021-01-28 08:00:00 4.5 26 Oeste 37 Oeste 0 -- -- 100
2021-01-28 07:00:00 4.6 31 Oeste 38 Oeste 0.2 -- -- 100
2021-01-28 06:00:00 4.1 17 Oeste 27 Oeste 0 -- -- 100
2021-01-28 05:00:00 4.9 20 Oeste 24 Oeste 0 -- -- 99
2021-01-28 04:00:00 4.9 18 Oeste 27 Oeste 0 -- -- 97
2021-01-28 03:00:00 5.4 20 Oeste 23 Oeste 0 -- -- 97
2021-01-28 02:00:00 6.7 19 Oeste 25 Oeste 0 -- -- 85
2021-01-28 01:00:00 7.3 23 Oeste 27 Oeste 0 -- -- 82
2021-01-28 00:00:00 6.5 24 Oeste 29 Oeste 0 -- -- 98